sensor_id;sensor_type;location;lat;lon;timestamp;P1;durP1;ratioP1;P2;durP2;ratioP2
38513;SDS011;24282;48.400;10.808;2023-01-10T00:01:38;1.23;;;0.93;;
38513;SDS011;24282;48.400;10.808;2023-01-10T00:04:04;1.97;;;1.00;;
38513;SDS011;24282;48.400;10.808;2023-01-10T00:06:30;1.67;;;1.00;;
38513;SDS011;24282;48.400;10.808;2023-01-10T00:08:56;2.33;;;1.10;;
38513;SDS011;24282;48.400;10.808;2023-01-10T00:11:22;1.33;;;0.87;;
38513;SDS011;24282;48.400;10.808;2023-01-10T00:14:06;1.20;;;0.90;;
38513;SDS011;24282;48.400;10.808;2023-01-10T00:16:32;1.90;;;1.00;;
38513;SDS011;24282;48.400;10.808;2023-01-10T00:18:58;1.53;;;0.87;;
38513;SDS011;24282;48.400;10.808;2023-01-10T00:21:24;1.97;;;0.83;;
38513;SDS011;24282;48.400;10.808;2023-01-10T00:23:50;3.00;;;0.90;;
38513;SDS011;24282;48.400;10.808;2023-01-10T00:26:16;2.50;;;1.10;;
38513;SDS011;24282;48.400;10.808;2023-01-10T00:28:42;1.67;;;0.83;;
38513;SDS011;24282;48.400;10.808;2023-01-10T00:31:08;1.90;;;0.80;;
38513;SDS011;24282;48.400;10.808;2023-01-10T00:33:36;2.03;;;1.03;;
38513;SDS011;24282;48.400;10.808;2023-01-10T00:36:02;1.27;;;0.87;;
38513;SDS011;24282;48.400;10.808;2023-01-10T00:38:29;1.30;;;0.87;;
38513;SDS011;24282;48.400;10.808;2023-01-10T00:40:57;2.03;;;1.03;;
38513;SDS011;24282;48.400;10.808;2023-01-10T00:43:22;0.97;;;0.80;;
38513;SDS011;24282;48.400;10.808;2023-01-10T00:46:07;1.73;;;1.00;;
38513;SDS011;24282;48.400;10.808;2023-01-10T00:48:33;1.30;;;0.80;;
38513;SDS011;24282;48.400;10.808;2023-01-10T00:50:59;1.37;;;0.80;;
38513;SDS011;24282;48.400;10.808;2023-01-10T00:53:25;4.07;;;2.50;;
38513;SDS011;24282;48.400;10.808;2023-01-10T00:55:52;2.20;;;1.40;;
38513;SDS011;24282;48.400;10.808;2023-01-10T00:58:18;1.73;;;0.90;;
38513;SDS011;24282;48.400;10.808;2023-01-10T01:00:44;2.60;;;1.00;;
38513;SDS011;24282;48.400;10.808;2023-01-10T01:03:11;1.73;;;1.07;;
38513;SDS011;24282;48.400;10.808;2023-01-10T01:05:41;1.63;;;1.07;;
38513;SDS011;24282;48.400;10.808;2023-01-10T01:08:08;1.20;;;1.00;;
38513;SDS011;24282;48.400;10.808;2023-01-10T01:10:35;2.60;;;1.27;;
38513;SDS011;24282;48.400;10.808;2023-01-10T01:13:17;1.90;;;0.90;;
38513;SDS011;24282;48.400;10.808;2023-01-10T01:15:45;1.47;;;0.90;;
38513;SDS011;24282;48.400;10.808;2023-01-10T01:18:11;1.23;;;0.93;;
38513;SDS011;24282;48.400;10.808;2023-01-10T01:20:39;0.80;;;0.70;;
38513;SDS011;24282;48.400;10.808;2023-01-10T01:23:05;1.63;;;0.90;;
38513;SDS011;24282;48.400;10.808;2023-01-10T01:25:31;1.17;;;0.90;;
38513;SDS011;24282;48.400;10.808;2023-01-10T01:27:57;1.77;;;1.00;;
38513;SDS011;24282;48.400;10.808;2023-01-10T01:30:23;1.90;;;1.10;;
38513;SDS011;24282;48.400;10.808;2023-01-10T01:32:49;2.60;;;1.07;;
38513;SDS011;24282;48.400;10.808;2023-01-10T01:35:15;2.33;;;1.20;;
38513;SDS011;24282;48.400;10.808;2023-01-10T01:37:41;2.33;;;1.30;;
38513;SDS011;24282;48.400;10.808;2023-01-10T01:40:09;3.23;;;1.13;;
38513;SDS011;24282;48.400;10.808;2023-01-10T01:42:41;2.63;;;1.15;;
38513;SDS011;24282;48.400;10.808;2023-01-10T01:47:43;1.63;;;1.10;;
38513;SDS011;24282;48.400;10.808;2023-01-10T01:50:39;3.03;;;1.30;;
38513;SDS011;24282;48.400;10.808;2023-01-10T01:53:07;2.93;;;1.20;;
38513;SDS011;24282;48.400;10.808;2023-01-10T01:55:37;1.85;;;1.20;;
38513;SDS011;24282;48.400;10.808;2023-01-10T01:58:05;2.47;;;1.17;;
38513;SDS011;24282;48.400;10.808;2023-01-10T02:00:37;2.17;;;1.25;;
38513;SDS011;24282;48.400;10.808;2023-01-10T02:03:02;1.80;;;1.30;;
38513;SDS011;24282;48.400;10.808;2023-01-10T02:05:30;1.50;;;1.20;;
38513;SDS011;24282;48.400;10.808;2023-01-10T02:07:58;3.27;;;1.40;;
38513;SDS011;24282;48.400;10.808;2023-01-10T02:10:31;2.80;;;1.40;;
38513;SDS011;24282;48.400;10.808;2023-01-10T02:13:13;2.23;;;1.37;;
38513;SDS011;24282;48.400;10.808;2023-01-10T02:15:41;2.73;;;1.20;;
38513;SDS011;24282;48.400;10.808;2023-01-10T02:18:07;1.70;;;1.33;;
38513;SDS011;24282;48.400;10.808;2023-01-10T02:29:00;1.40;;;1.10;;
38513;SDS011;24282;48.400;10.808;2023-01-10T02:34:34;1.87;;;0.90;;
38513;SDS011;24282;48.400;10.808;2023-01-10T02:42:35;2.40;;;1.30;;
38513;SDS011;24282;48.400;10.808;2023-01-10T02:47:37;1.77;;;1.13;;
38513;SDS011;24282;48.400;10.808;2023-01-10T02:52:49;2.53;;;1.30;;
38513;SDS011;24282;48.400;10.808;2023-01-10T02:55:14;1.63;;;1.20;;
38513;SDS011;24282;48.400;10.808;2023-01-10T02:57:55;2.40;;;1.30;;
38513;SDS011;24282;48.400;10.808;2023-01-10T03:00:54;3.43;;;1.30;;
38513;SDS011;24282;48.400;10.808;2023-01-10T03:03:41;2.13;;;1.33;;
38513;SDS011;24282;48.400;10.808;2023-01-10T03:09:19;4.53;;;2.23;;
38513;SDS011;24282;48.400;10.808;2023-01-10T03:11:54;3.00;;;1.97;;
38513;SDS011;24282;48.400;10.808;2023-01-10T03:14:27;3.93;;;1.80;;
38513;SDS011;24282;48.400;10.808;2023-01-10T03:16:56;4.13;;;2.10;;
38513;SDS011;24282;48.400;10.808;2023-01-10T03:19:26;3.20;;;1.93;;
38513;SDS011;24282;48.400;10.808;2023-01-10T03:21:57;5.05;;;2.20;;
38513;SDS011;24282;48.400;10.808;2023-01-10T03:24:32;3.53;;;2.37;;
38513;SDS011;24282;48.400;10.808;2023-01-10T03:27:09;3.08;;;2.22;;
38513;SDS011;24282;48.400;10.808;2023-01-10T03:29:45;3.80;;;2.00;;
38513;SDS011;24282;48.400;10.808;2023-01-10T03:32:24;3.63;;;1.80;;
38513;SDS011;24282;48.400;10.808;2023-01-10T03:34:52;3.53;;;1.90;;
38513;SDS011;24282;48.400;10.808;2023-01-10T03:40:26;2.50;;;2.13;;
38513;SDS011;24282;48.400;10.808;2023-01-10T03:45:54;2.87;;;1.80;;
38513;SDS011;24282;48.400;10.808;2023-01-10T03:48:28;4.73;;;2.57;;
38513;SDS011;24282;48.400;10.808;2023-01-10T03:50:59;4.20;;;2.50;;
38513;SDS011;24282;48.400;10.808;2023-01-10T03:53:28;4.07;;;2.30;;
38513;SDS011;24282;48.400;10.808;2023-01-10T03:55:55;4.87;;;2.70;;
38513;SDS011;24282;48.400;10.808;2023-01-10T03:58:20;4.90;;;2.50;;
38513;SDS011;24282;48.400;10.808;2023-01-10T04:00:46;4.23;;;2.57;;
38513;SDS011;24282;48.400;10.808;2023-01-10T04:03:12;2.57;;;1.90;;
38513;SDS011;24282;48.400;10.808;2023-01-10T04:05:38;3.40;;;1.97;;
38513;SDS011;24282;48.400;10.808;2023-01-10T04:08:04;2.57;;;2.03;;
38513;SDS011;24282;48.400;10.808;2023-01-10T04:10:30;3.60;;;2.30;;
38513;SDS011;24282;48.400;10.808;2023-01-10T04:12:59;3.87;;;1.97;;
38513;SDS011;24282;48.400;10.808;2023-01-10T04:15:26;2.63;;;2.10;;
38513;SDS011;24282;48.400;10.808;2023-01-10T04:17:53;2.17;;;1.90;;
38513;SDS011;24282;48.400;10.808;2023-01-10T04:20:19;2.40;;;1.73;;
38513;SDS011;24282;48.400;10.808;2023-01-10T04:22:44;1.90;;;1.70;;
38513;SDS011;24282;48.400;10.808;2023-01-10T04:25:10;2.53;;;1.87;;
38513;SDS011;24282;48.400;10.808;2023-01-10T04:27:36;3.43;;;2.20;;
38513;SDS011;24282;48.400;10.808;2023-01-10T04:30:02;5.57;;;2.63;;
38513;SDS011;24282;48.400;10.808;2023-01-10T04:32:28;4.47;;;2.37;;
38513;SDS011;24282;48.400;10.808;2023-01-10T04:34:54;5.13;;;3.13;;
38513;SDS011;24282;48.400;10.808;2023-01-10T04:37:20;4.27;;;2.67;;
38513;SDS011;24282;48.400;10.808;2023-01-10T04:39:45;3.00;;;1.90;;
38513;SDS011;24282;48.400;10.808;2023-01-10T04:42:11;2.50;;;2.00;;
38513;SDS011;24282;48.400;10.808;2023-01-10T04:44:37;4.60;;;2.50;;
38513;SDS011;24282;48.400;10.808;2023-01-10T04:47:03;2.13;;;1.57;;
38513;SDS011;24282;48.400;10.808;2023-01-10T04:49:29;3.23;;;2.10;;
38513;SDS011;24282;48.400;10.808;2023-01-10T04:51:55;2.00;;;1.50;;
38513;SDS011;24282;48.400;10.808;2023-01-10T04:54:21;3.00;;;2.20;;
38513;SDS011;24282;48.400;10.808;2023-01-10T04:56:47;4.10;;;1.90;;
38513;SDS011;24282;48.400;10.808;2023-01-10T04:59:13;1.87;;;1.60;;
38513;SDS011;24282;48.400;10.808;2023-01-10T05:01:39;2.47;;;1.43;;
38513;SDS011;24282;48.400;10.808;2023-01-10T05:04:05;2.40;;;1.60;;
38513;SDS011;24282;48.400;10.808;2023-01-10T05:06:31;1.40;;;1.20;;
38513;SDS011;24282;48.400;10.808;2023-01-10T05:08:57;4.00;;;3.27;;
38513;SDS011;24282;48.400;10.808;2023-01-10T05:11:23;4.63;;;3.00;;
38513;SDS011;24282;48.400;10.808;2023-01-10T05:13:48;2.00;;;1.80;;
38513;SDS011;24282;48.400;10.808;2023-01-10T05:16:14;3.93;;;2.63;;
38513;SDS011;24282;48.400;10.808;2023-01-10T05:18:40;8.87;;;7.00;;
38513;SDS011;24282;48.400;10.808;2023-01-10T05:21:07;13.90;;;12.30;;
38513;SDS011;24282;48.400;10.808;2023-01-10T05:23:35;12.00;;;10.80;;
38513;SDS011;24282;48.400;10.808;2023-01-10T05:26:05;4.10;;;3.70;;
38513;SDS011;24282;48.400;10.808;2023-01-10T05:28:38;3.57;;;2.63;;
38513;SDS011;24282;48.400;10.808;2023-01-10T05:31:04;2.97;;;1.87;;
38513;SDS011;24282;48.400;10.808;2023-01-10T05:33:31;3.63;;;2.13;;
38513;SDS011;24282;48.400;10.808;2023-01-10T05:35:59;2.53;;;1.83;;
38513;SDS011;24282;48.400;10.808;2023-01-10T05:38:27;2.57;;;1.47;;
38513;SDS011;24282;48.400;10.808;2023-01-10T05:40:53;3.57;;;3.00;;
38513;SDS011;24282;48.400;10.808;2023-01-10T05:43:20;2.00;;;1.20;;
38513;SDS011;24282;48.400;10.808;2023-01-10T05:45:46;5.50;;;5.10;;
38513;SDS011;24282;48.400;10.808;2023-01-10T05:48:12;1.77;;;1.67;;
38513;SDS011;24282;48.400;10.808;2023-01-10T05:50:37;1.57;;;1.40;;
38513;SDS011;24282;48.400;10.808;2023-01-10T05:53:03;1.03;;;0.93;;
38513;SDS011;24282;48.400;10.808;2023-01-10T05:55:30;1.37;;;1.27;;
38513;SDS011;24282;48.400;10.808;2023-01-10T05:57:56;1.20;;;1.10;;
38513;SDS011;24282;48.400;10.808;2023-01-10T06:00:22;1.40;;;1.30;;
38513;SDS011;24282;48.400;10.808;2023-01-10T06:02:48;3.30;;;1.90;;
38513;SDS011;24282;48.400;10.808;2023-01-10T06:05:13;1.33;;;1.20;;
38513;SDS011;24282;48.400;10.808;2023-01-10T06:07:39;1.80;;;1.00;;
38513;SDS011;24282;48.400;10.808;2023-01-10T06:10:05;2.43;;;1.70;;
38513;SDS011;24282;48.400;10.808;2023-01-10T06:12:31;5.07;;;3.20;;
38513;SDS011;24282;48.400;10.808;2023-01-10T06:14:57;5.30;;;2.90;;
38513;SDS011;24282;48.400;10.808;2023-01-10T06:17:22;2.83;;;2.10;;
38513;SDS011;24282;48.400;10.808;2023-01-10T06:19:48;1.60;;;1.40;;
38513;SDS011;24282;48.400;10.808;2023-01-10T06:22:16;2.30;;;1.83;;
38513;SDS011;24282;48.400;10.808;2023-01-10T06:24:41;2.40;;;1.80;;
38513;SDS011;24282;48.400;10.808;2023-01-10T06:27:07;3.20;;;2.30;;
38513;SDS011;24282;48.400;10.808;2023-01-10T06:29:33;2.43;;;1.70;;
38513;SDS011;24282;48.400;10.808;2023-01-10T06:31:59;3.10;;;2.00;;
38513;SDS011;24282;48.400;10.808;2023-01-10T06:34:24;3.67;;;1.93;;
38513;SDS011;24282;48.400;10.808;2023-01-10T06:36:50;3.77;;;1.70;;
38513;SDS011;24282;48.400;10.808;2023-01-10T06:39:16;2.43;;;1.83;;
38513;SDS011;24282;48.400;10.808;2023-01-10T06:41:42;2.57;;;2.00;;
38513;SDS011;24282;48.400;10.808;2023-01-10T06:44:07;3.20;;;1.97;;
38513;SDS011;24282;48.400;10.808;2023-01-10T06:46:33;2.90;;;2.00;;
38513;SDS011;24282;48.400;10.808;2023-01-10T06:48:59;3.10;;;2.00;;
38513;SDS011;24282;48.400;10.808;2023-01-10T06:51:25;2.77;;;1.90;;
38513;SDS011;24282;48.400;10.808;2023-01-10T06:53:50;3.83;;;2.30;;
38513;SDS011;24282;48.400;10.808;2023-01-10T06:56:16;4.10;;;2.33;;
38513;SDS011;24282;48.400;10.808;2023-01-10T06:58:42;5.13;;;2.40;;
38513;SDS011;24282;48.400;10.808;2023-01-10T07:01:15;3.70;;;2.23;;
38513;SDS011;24282;48.400;10.808;2023-01-10T07:03:42;4.80;;;2.53;;
38513;SDS011;24282;48.400;10.808;2023-01-10T07:06:08;3.23;;;2.33;;
38513;SDS011;24282;48.400;10.808;2023-01-10T07:08:38;4.97;;;2.23;;
38513;SDS011;24282;48.400;10.808;2023-01-10T07:11:05;4.47;;;2.40;;
38513;SDS011;24282;48.400;10.808;2023-01-10T07:13:32;4.50;;;2.73;;
38513;SDS011;24282;48.400;10.808;2023-01-10T07:16:04;3.43;;;2.40;;
38513;SDS011;24282;48.400;10.808;2023-01-10T07:18:39;4.07;;;2.20;;
38513;SDS011;24282;48.400;10.808;2023-01-10T07:21:06;5.57;;;2.60;;
38513;SDS011;24282;48.400;10.808;2023-01-10T07:23:32;2.60;;;1.80;;
38513;SDS011;24282;48.400;10.808;2023-01-10T07:26:05;5.47;;;2.07;;
38513;SDS011;24282;48.400;10.808;2023-01-10T07:28:32;4.57;;;2.67;;
38513;SDS011;24282;48.400;10.808;2023-01-10T07:30:59;7.83;;;4.20;;
38513;SDS011;24282;48.400;10.808;2023-01-10T07:33:26;5.73;;;2.10;;
38513;SDS011;24282;48.400;10.808;2023-01-10T07:35:55;3.83;;;1.90;;
38513;SDS011;24282;48.400;10.808;2023-01-10T07:38:21;3.07;;;1.73;;
38513;SDS011;24282;48.400;10.808;2023-01-10T07:40:46;4.03;;;1.50;;
38513;SDS011;24282;48.400;10.808;2023-01-10T07:43:12;2.83;;;1.70;;
38513;SDS011;24282;48.400;10.808;2023-01-10T07:45:38;3.07;;;1.60;;
38513;SDS011;24282;48.400;10.808;2023-01-10T07:48:04;3.47;;;1.90;;
38513;SDS011;24282;48.400;10.808;2023-01-10T07:50:31;2.80;;;1.77;;
38513;SDS011;24282;48.400;10.808;2023-01-10T07:52:59;1.70;;;1.33;;
38513;SDS011;24282;48.400;10.808;2023-01-10T07:55:26;5.77;;;3.50;;
38513;SDS011;24282;48.400;10.808;2023-01-10T07:57:52;4.60;;;2.87;;
38513;SDS011;24282;48.400;10.808;2023-01-10T08:00:18;3.47;;;2.00;;
38513;SDS011;24282;48.400;10.808;2023-01-10T08:02:44;4.17;;;1.60;;
38513;SDS011;24282;48.400;10.808;2023-01-10T08:05:10;4.33;;;1.93;;
38513;SDS011;24282;48.400;10.808;2023-01-10T08:07:36;4.47;;;2.37;;
38513;SDS011;24282;48.400;10.808;2023-01-10T08:10:03;3.97;;;2.00;;
38513;SDS011;24282;48.400;10.808;2023-01-10T08:12:30;6.60;;;2.57;;
38513;SDS011;24282;48.400;10.808;2023-01-10T08:14:56;4.23;;;2.03;;
38513;SDS011;24282;48.400;10.808;2023-01-10T08:17:22;4.70;;;2.20;;
38513;SDS011;24282;48.400;10.808;2023-01-10T08:19:48;3.60;;;2.10;;
38513;SDS011;24282;48.400;10.808;2023-01-10T08:22:14;5.03;;;2.30;;
38513;SDS011;24282;48.400;10.808;2023-01-10T08:24:39;3.73;;;2.63;;
38513;SDS011;24282;48.400;10.808;2023-01-10T08:27:05;6.13;;;2.77;;
38513;SDS011;24282;48.400;10.808;2023-01-10T08:29:31;4.27;;;2.73;;
38513;SDS011;24282;48.400;10.808;2023-01-10T08:31:57;5.93;;;3.27;;
38513;SDS011;24282;48.400;10.808;2023-01-10T08:34:23;4.37;;;2.43;;
38513;SDS011;24282;48.400;10.808;2023-01-10T08:36:50;3.87;;;2.30;;
38513;SDS011;24282;48.400;10.808;2023-01-10T08:39:17;5.70;;;2.80;;
38513;SDS011;24282;48.400;10.808;2023-01-10T08:41:44;2.87;;;2.27;;
38513;SDS011;24282;48.400;10.808;2023-01-10T08:44:10;4.73;;;2.47;;
38513;SDS011;24282;48.400;10.808;2023-01-10T08:46:37;4.97;;;2.50;;
38513;SDS011;24282;48.400;10.808;2023-01-10T08:49:03;5.10;;;2.20;;
38513;SDS011;24282;48.400;10.808;2023-01-10T08:51:30;4.47;;;2.13;;
38513;SDS011;24282;48.400;10.808;2023-01-10T08:53:56;3.70;;;1.83;;
38513;SDS011;24282;48.400;10.808;2023-01-10T08:56:22;3.27;;;1.90;;
38513;SDS011;24282;48.400;10.808;2023-01-10T08:58:47;4.00;;;2.00;;
38513;SDS011;24282;48.400;10.808;2023-01-10T09:01:13;7.03;;;3.30;;
38513;SDS011;24282;48.400;10.808;2023-01-10T09:03:39;4.60;;;2.63;;
38513;SDS011;24282;48.400;10.808;2023-01-10T09:06:05;3.13;;;1.90;;
38513;SDS011;24282;48.400;10.808;2023-01-10T09:08:32;3.90;;;1.97;;
38513;SDS011;24282;48.400;10.808;2023-01-10T09:10:58;2.70;;;1.40;;
38513;SDS011;24282;48.400;10.808;2023-01-10T09:13:24;7.43;;;1.70;;
38513;SDS011;24282;48.400;10.808;2023-01-10T09:15:51;3.03;;;1.47;;
38513;SDS011;24282;48.400;10.808;2023-01-10T09:18:17;5.13;;;1.47;;
38513;SDS011;24282;48.400;10.808;2023-01-10T09:20:43;6.70;;;2.00;;
38513;SDS011;24282;48.400;10.808;2023-01-10T09:23:10;5.67;;;1.80;;
38513;SDS011;24282;48.400;10.808;2023-01-10T09:25:41;5.27;;;1.77;;
38513;SDS011;24282;48.400;10.808;2023-01-10T09:28:08;5.97;;;1.83;;
38513;SDS011;24282;48.400;10.808;2023-01-10T09:30:34;3.57;;;1.40;;
38513;SDS011;24282;48.400;10.808;2023-01-10T09:33:00;5.00;;;1.63;;
38513;SDS011;24282;48.400;10.808;2023-01-10T09:35:27;5.27;;;1.67;;
38513;SDS011;24282;48.400;10.808;2023-01-10T09:37:54;6.83;;;2.00;;
38513;SDS011;24282;48.400;10.808;2023-01-10T09:40:32;6.40;;;1.93;;
38513;SDS011;24282;48.400;10.808;2023-01-10T09:48:42;7.17;;;2.60;;
38513;SDS011;24282;48.400;10.808;2023-01-10T09:51:34;8.33;;;2.57;;
38513;SDS011;24282;48.400;10.808;2023-01-10T09:54:06;7.83;;;2.70;;
38513;SDS011;24282;48.400;10.808;2023-01-10T09:56:39;5.93;;;2.07;;
38513;SDS011;24282;48.400;10.808;2023-01-10T09:59:05;6.97;;;1.67;;
38513;SDS011;24282;48.400;10.808;2023-01-10T10:01:37;6.90;;;1.95;;
38513;SDS011;24282;48.400;10.808;2023-01-10T10:04:24;7.20;;;2.17;;
38513;SDS011;24282;48.400;10.808;2023-01-10T10:06:57;6.60;;;1.75;;
38513;SDS011;24282;48.400;10.808;2023-01-10T10:09:30;7.60;;;1.63;;
38513;SDS011;24282;48.400;10.808;2023-01-10T10:18:04;5.97;;;1.90;;
38513;SDS011;24282;48.400;10.808;2023-01-10T10:31:00;4.63;;;1.40;;
38513;SDS011;24282;48.400;10.808;2023-01-10T10:36:04;3.30;;;1.00;;
38513;SDS011;24282;48.400;10.808;2023-01-10T10:38:34;4.17;;;1.20;;
38513;SDS011;24282;48.400;10.808;2023-01-10T10:41:03;4.20;;;1.30;;
38513;SDS011;24282;48.400;10.808;2023-01-10T10:43:33;5.40;;;1.97;;
38513;SDS011;24282;48.400;10.808;2023-01-10T10:48:42;4.10;;;1.73;;
38513;SDS011;24282;48.400;10.808;2023-01-10T10:51:46;2.50;;;1.20;;
38513;SDS011;24282;48.400;10.808;2023-01-10T10:54:16;4.63;;;1.60;;
38513;SDS011;24282;48.400;10.808;2023-01-10T10:56:42;3.20;;;1.37;;
38513;SDS011;24282;48.400;10.808;2023-01-10T10:59:10;4.23;;;1.40;;
38513;SDS011;24282;48.400;10.808;2023-01-10T11:01:41;7.30;;;1.50;;
38513;SDS011;24282;48.400;10.808;2023-01-10T11:04:11;5.30;;;1.60;;
38513;SDS011;24282;48.400;10.808;2023-01-10T11:06:39;9.33;;;4.93;;
38513;SDS011;24282;48.400;10.808;2023-01-10T11:09:13;6.32;;;2.13;;
38513;SDS011;24282;48.400;10.808;2023-01-10T11:11:49;6.20;;;1.87;;
38513;SDS011;24282;48.400;10.808;2023-01-10T11:14:38;6.07;;;1.80;;
38513;SDS011;24282;48.400;10.808;2023-01-10T11:17:27;4.53;;;1.73;;
38513;SDS011;24282;48.400;10.808;2023-01-10T11:22:26;5.90;;;1.60;;
38513;SDS011;24282;48.400;10.808;2023-01-10T11:24:57;5.00;;;1.90;;
38513;SDS011;24282;48.400;10.808;2023-01-10T11:27:26;4.73;;;1.57;;
38513;SDS011;24282;48.400;10.808;2023-01-10T11:30:06;3.63;;;1.43;;
38513;SDS011;24282;48.400;10.808;2023-01-10T11:32:34;4.47;;;1.57;;
38513;SDS011;24282;48.400;10.808;2023-01-10T11:35:05;4.20;;;1.57;;
38513;SDS011;24282;48.400;10.808;2023-01-10T11:37:34;4.93;;;1.93;;
38513;SDS011;24282;48.400;10.808;2023-01-10T11:40:08;5.30;;;2.23;;
38513;SDS011;24282;48.400;10.808;2023-01-10T11:42:41;6.80;;;1.97;;
38513;SDS011;24282;48.400;10.808;2023-01-10T11:47:42;5.20;;;2.23;;
38513;SDS011;24282;48.400;10.808;2023-01-10T11:50:37;3.40;;;1.43;;
38513;SDS011;24282;48.400;10.808;2023-01-10T11:55:58;2.90;;;1.53;;
38513;SDS011;24282;48.400;10.808;2023-01-10T11:58:24;3.07;;;1.50;;
38513;SDS011;24282;48.400;10.808;2023-01-10T12:00:55;3.87;;;1.50;;
38513;SDS011;24282;48.400;10.808;2023-01-10T12:03:22;4.87;;;1.70;;
38513;SDS011;24282;48.400;10.808;2023-01-10T12:06:02;5.13;;;1.60;;
38513;SDS011;24282;48.400;10.808;2023-01-10T12:08:34;6.13;;;1.90;;
38513;SDS011;24282;48.400;10.808;2023-01-10T12:11:05;5.43;;;1.53;;
38513;SDS011;24282;48.400;10.808;2023-01-10T12:18:42;5.00;;;1.47;;
38513;SDS011;24282;48.400;10.808;2023-01-10T12:21:08;5.93;;;1.80;;
38513;SDS011;24282;48.400;10.808;2023-01-10T12:23:35;4.97;;;1.40;;
38513;SDS011;24282;48.400;10.808;2023-01-10T12:26:06;4.33;;;1.40;;
38513;SDS011;24282;48.400;10.808;2023-01-10T12:28:34;5.90;;;1.57;;
38513;SDS011;24282;48.400;10.808;2023-01-10T12:31:01;4.07;;;1.37;;
38513;SDS011;24282;48.400;10.808;2023-01-10T12:36:31;5.43;;;1.90;;
38513;SDS011;24282;48.400;10.808;2023-01-10T12:39:13;3.70;;;1.30;;
38513;SDS011;24282;48.400;10.808;2023-01-10T12:45:02;4.60;;;1.40;;
38513;SDS011;24282;48.400;10.808;2023-01-10T12:50:20;3.50;;;1.30;;
38513;SDS011;24282;48.400;10.808;2023-01-10T12:53:12;3.67;;;1.53;;
38513;SDS011;24282;48.400;10.808;2023-01-10T12:55:43;3.77;;;1.60;;
38513;SDS011;24282;48.400;10.808;2023-01-10T13:00:49;5.40;;;1.97;;
38513;SDS011;24282;48.400;10.808;2023-01-10T13:03:25;5.87;;;4.10;;
38513;SDS011;24282;48.400;10.808;2023-01-10T13:05:55;5.87;;;2.60;;
38513;SDS011;24282;48.400;10.808;2023-01-10T13:08:23;3.57;;;1.70;;
38513;SDS011;24282;48.400;10.808;2023-01-10T13:10:53;3.43;;;1.30;;
38513;SDS011;24282;48.400;10.808;2023-01-10T13:18:46;16.10;;;11.80;;
38513;SDS011;24282;48.400;10.808;2023-01-10T13:21:24;8.03;;;3.93;;
38513;SDS011;24282;48.400;10.808;2023-01-10T13:23:50;19.03;;;10.70;;
38513;SDS011;24282;48.400;10.808;2023-01-10T13:26:19;23.40;;;12.30;;
38513;SDS011;24282;48.400;10.808;2023-01-10T13:28:55;12.23;;;5.93;;
38513;SDS011;24282;48.400;10.808;2023-01-10T13:31:32;8.40;;;3.07;;
38513;SDS011;24282;48.400;10.808;2023-01-10T13:36:50;4.27;;;1.40;;
38513;SDS011;24282;48.400;10.808;2023-01-10T14:04:18;33.40;;;13.63;;
38513;SDS011;24282;48.400;10.808;2023-01-10T14:06:44;67.30;;;27.23;;
38513;SDS011;24282;48.400;10.808;2023-01-10T14:14:32;72.87;;;31.60;;
38513;SDS011;24282;48.400;10.808;2023-01-10T14:17:12;36.00;;;15.00;;
38513;SDS011;24282;48.400;10.808;2023-01-10T14:25:26;8.27;;;5.10;;
38513;SDS011;24282;48.400;10.808;2023-01-10T14:27:53;6.93;;;4.13;;
38513;SDS011;24282;48.400;10.808;2023-01-10T14:30:21;3.63;;;1.47;;
38513;SDS011;24282;48.400;10.808;2023-01-10T14:32:59;5.17;;;2.37;;
38513;SDS011;24282;48.400;10.808;2023-01-10T14:35:32;5.50;;;1.97;;
38513;SDS011;24282;48.400;10.808;2023-01-10T14:38:01;4.73;;;1.70;;
38513;SDS011;24282;48.400;10.808;2023-01-10T14:40:39;3.07;;;1.40;;
38513;SDS011;24282;48.400;10.808;2023-01-10T14:43:18;1.87;;;0.90;;
38513;SDS011;24282;48.400;10.808;2023-01-10T14:45:48;3.13;;;1.20;;
38513;SDS011;24282;48.400;10.808;2023-01-10T14:48:33;5.27;;;1.13;;
38513;SDS011;24282;48.400;10.808;2023-01-10T14:53:38;3.60;;;1.17;;
38513;SDS011;24282;48.400;10.808;2023-01-10T14:56:51;4.13;;;1.17;;
38513;SDS011;24282;48.400;10.808;2023-01-10T14:58:52;4.73;;;1.57;;
38513;SDS011;24282;48.400;10.808;2023-01-10T15:01:21;3.07;;;1.13;;
38513;SDS011;24282;48.400;10.808;2023-01-10T15:03:49;3.57;;;1.30;;
38513;SDS011;24282;48.400;10.808;2023-01-10T15:06:16;3.17;;;1.23;;
38513;SDS011;24282;48.400;10.808;2023-01-10T15:08:42;3.53;;;1.10;;
38513;SDS011;24282;48.400;10.808;2023-01-10T15:11:08;3.17;;;1.20;;
38513;SDS011;24282;48.400;10.808;2023-01-10T15:13:40;2.90;;;1.53;;
38513;SDS011;24282;48.400;10.808;2023-01-10T15:16:28;2.03;;;1.00;;
38513;SDS011;24282;48.400;10.808;2023-01-10T15:18:55;3.40;;;1.30;;
38513;SDS011;24282;48.400;10.808;2023-01-10T15:21:22;2.93;;;1.23;;
38513;SDS011;24282;48.400;10.808;2023-01-10T15:23:49;3.50;;;1.23;;
38513;SDS011;24282;48.400;10.808;2023-01-10T15:28:43;3.23;;;1.60;;
38513;SDS011;24282;48.400;10.808;2023-01-10T15:31:13;3.43;;;1.47;;
38513;SDS011;24282;48.400;10.808;2023-01-10T15:33:42;5.53;;;1.93;;
38513;SDS011;24282;48.400;10.808;2023-01-10T15:36:20;4.93;;;1.30;;
38513;SDS011;24282;48.400;10.808;2023-01-10T15:38:49;4.40;;;1.30;;
38513;SDS011;24282;48.400;10.808;2023-01-10T15:41:16;5.30;;;1.70;;
38513;SDS011;24282;48.400;10.808;2023-01-10T15:43:44;3.20;;;1.67;;
38513;SDS011;24282;48.400;10.808;2023-01-10T15:46:21;4.53;;;1.87;;
38513;SDS011;24282;48.400;10.808;2023-01-10T15:49:00;3.30;;;1.47;;
38513;SDS011;24282;48.400;10.808;2023-01-10T15:56:32;5.20;;;2.20;;
38513;SDS011;24282;48.400;10.808;2023-01-10T15:59:21;5.90;;;2.27;;
38513;SDS011;24282;48.400;10.808;2023-01-10T16:04:55;4.93;;;1.70;;
38513;SDS011;24282;48.400;10.808;2023-01-10T16:07:24;7.73;;;1.90;;
38513;SDS011;24282;48.400;10.808;2023-01-10T16:12:35;5.77;;;2.80;;
38513;SDS011;24282;48.400;10.808;2023-01-10T16:15:22;8.25;;;4.05;;
38513;SDS011;24282;48.400;10.808;2023-01-10T16:17:49;8.67;;;6.10;;
38513;SDS011;24282;48.400;10.808;2023-01-10T16:20:17;13.37;;;8.20;;
38513;SDS011;24282;48.400;10.808;2023-01-10T16:22:49;16.37;;;9.50;;
38513;SDS011;24282;48.400;10.808;2023-01-10T16:25:18;13.00;;;6.43;;
38513;SDS011;24282;48.400;10.808;2023-01-10T16:27:46;10.20;;;5.83;;
38513;SDS011;24282;48.400;10.808;2023-01-10T16:30:25;8.43;;;4.73;;
38513;SDS011;24282;48.400;10.808;2023-01-10T16:32:54;8.20;;;4.63;;
38513;SDS011;24282;48.400;10.808;2023-01-10T16:35:23;8.30;;;4.57;;
38513;SDS011;24282;48.400;10.808;2023-01-10T16:37:52;8.60;;;5.23;;
38513;SDS011;24282;48.400;10.808;2023-01-10T16:42:53;9.93;;;6.32;;
38513;SDS011;24282;48.400;10.808;2023-01-10T16:45:38;12.07;;;6.47;;
38513;SDS011;24282;48.400;10.808;2023-01-10T16:48:04;11.47;;;7.43;;
38513;SDS011;24282;48.400;10.808;2023-01-10T16:50:30;16.90;;;8.27;;
38513;SDS011;24282;48.400;10.808;2023-01-10T16:52:56;12.80;;;7.70;;
38513;SDS011;24282;48.400;10.808;2023-01-10T16:55:24;12.03;;;7.47;;
38513;SDS011;24282;48.400;10.808;2023-01-10T16:58:08;10.23;;;6.47;;
38513;SDS011;24282;48.400;10.808;2023-01-10T17:00:35;14.17;;;6.93;;
38513;SDS011;24282;48.400;10.808;2023-01-10T17:03:05;10.83;;;6.23;;
38513;SDS011;24282;48.400;10.808;2023-01-10T17:06:04;13.30;;;7.33;;
38513;SDS011;24282;48.400;10.808;2023-01-10T17:08:29;18.97;;;8.90;;
38513;SDS011;24282;48.400;10.808;2023-01-10T17:10:58;15.20;;;8.37;;
38513;SDS011;24282;48.400;10.808;2023-01-10T17:13:26;11.87;;;7.07;;
38513;SDS011;24282;48.400;10.808;2023-01-10T17:15:55;16.43;;;10.97;;